Time;durP1;ratioP1;P1;durP2;ratioP2;P2;SDS_P1;SDS_P2;PMS_P1;PMS_P2;Temp;Humidity;BMP_temperature;BMP_pressure;BME280_temperature;BME280_humidity;BME280_pressure;Samples;Min_cycle;Max_cycle;Signal;HPM_P1;HPM_P2
2023/09/02 00:00:03;;;;;;;6.68;2.38;;;15.10;99.90;;;;;;4080810;29;20095;-66
2023/09/02 00:02:04;;;;;;;3.80;1.98;;;15.00;99.90;;;;;;4078798;29;20102;-66
2023/09/02 00:04:05;;;;;;;4.03;1.90;;;14.80;99.90;;;;;;4080621;29;20040;-67
2023/09/02 00:06:06;;;;;;;2.67;1.80;;;14.60;99.90;;;;;;4079562;29;20091;-67
2023/09/02 00:08:07;;;;;;;3.63;1.80;;;14.50;99.90;;;;;;4080039;29;20091;-62
2023/09/02 00:10:08;;;;;;;3.38;1.92;;;14.50;99.90;;;;;;4079652;29;20519;-65
2023/09/02 00:12:10;;;;;;;5.03;1.77;;;14.40;99.90;;;;;;4080891;29;20099;-66
2023/09/02 00:14:12;;;;;;;2.55;1.98;;;14.50;99.90;;;;;;4079632;29;20429;-65
2023/09/02 00:16:13;;;;;;;3.33;2.38;;;14.50;99.90;;;;;;4080639;29;20063;-66
2023/09/02 00:18:14;;;;;;;4.25;1.90;;;14.50;99.90;;;;;;4079763;29;20032;-64
2023/09/02 00:20:15;;;;;;;4.78;2.28;;;14.50;99.90;;;;;;4080287;29;20032;-66
2023/09/02 00:22:17;;;;;;;1.98;1.73;;;14.50;99.90;;;;;;4079762;29;20091;-61
2023/09/02 00:24:18;;;;;;;3.92;2.08;;;14.50;99.90;;;;;;4080148;29;20055;-66
2023/09/02 00:26:19;;;;;;;3.97;1.90;;;14.60;99.90;;;;;;4080136;29;20046;-65
2023/09/02 00:28:20;;;;;;;3.00;1.90;;;14.60;99.90;;;;;;4079832;29;20075;-66
2023/09/02 00:30:21;;;;;;;2.35;1.95;;;14.60;99.90;;;;;;4080544;29;20449;-65
2023/09/02 00:32:23;;;;;;;5.70;2.25;;;14.70;99.90;;;;;;4079484;29;20095;-62
2023/09/02 00:34:24;;;;;;;5.28;2.38;;;14.70;99.90;;;;;;4080621;29;20082;-62
2023/09/02 00:36:27;;;;;;;2.85;1.88;;;14.60;99.90;;;;;;4079479;29;20082;-65
2023/09/02 00:38:29;;;;;;;4.55;2.08;;;14.50;99.90;;;;;;4080686;29;20035;-65
2023/09/02 00:40:31;;;;;;;3.25;2.00;;;14.40;99.90;;;;;;4079309;29;20102;-63
2023/09/02 00:42:33;;;;;;;5.28;2.53;;;14.40;99.90;;;;;;4080539;29;20079;-65
2023/09/02 00:44:35;;;;;;;6.10;3.33;;;14.40;99.90;;;;;;4078979;29;20063;-66
2023/09/02 00:46:36;;;;;;;8.70;2.50;;;14.30;99.90;;;;;;4079910;29;20102;-66
2023/09/02 00:48:37;;;;;;;5.88;2.63;;;14.30;99.90;;;;;;4077464;29;20551;-67
2023/09/02 00:50:39;;;;;;;5.15;2.67;;;14.30;99.90;;;;;;4080227;29;20031;-65
2023/09/02 00:52:40;;;;;;;3.72;2.33;;;14.30;99.90;;;;;;4079567;29;20020;-64
2023/09/02 00:54:41;;;;;;;6.47;2.83;;;14.20;99.90;;;;;;4079902;29;20036;-66
2023/09/02 00:56:42;;;;;;;5.10;2.55;;;14.30;99.90;;;;;;4079340;29;20040;-67
2023/09/02 00:58:44;;;;;;;5.55;2.70;;;14.30;99.90;;;;;;4079764;29;20440;-68
2023/09/02 01:00:47;;;;;;;7.82;2.88;;;14.30;99.90;;;;;;4079964;29;20016;-68
2023/09/02 01:02:49;;;;;;;5.00;2.67;;;14.30;99.90;;;;;;4077528;29;20107;-67
2023/09/02 01:04:50;;;;;;;4.88;2.50;;;14.40;99.90;;;;;;4080244;29;20047;-66
2023/09/02 01:06:55;;;;;;;5.55;2.90;;;14.40;99.90;;;;;;4079277;29;20068;-67
2023/09/02 01:08:56;;;;;;;5.10;2.45;;;14.40;99.90;;;;;;4080308;29;20040;-67
2023/09/02 01:11:01;;;;;;;6.32;2.60;;;14.30;99.90;;;;;;4079224;29;20035;-68
2023/09/02 01:13:03;;;;;;;4.65;2.30;;;14.30;99.90;;;;;;4080297;29;20385;-67
2023/09/02 01:15:05;;;;;;;5.72;2.50;;;14.30;99.90;;;;;;4081889;29;20055;-68
2023/09/02 01:17:06;;;;;;;4.63;2.95;;;14.30;99.90;;;;;;4083026;29;20536;-67
2023/09/02 01:19:10;;;;;;;9.20;3.10;;;14.30;99.90;;;;;;4081854;29;20039;-63
2023/09/02 01:21:36;;;;;;;4.43;1.90;;;14.20;99.90;;;;;;4083227;29;20044;-66
2023/09/02 01:23:49;;;;;;;7.18;2.40;;;14.20;99.90;;;;;;4081833;29;20048;-67
2023/09/02 01:26:29;;;;;;;4.63;1.98;;;14.20;99.90;;;;;;4083144;29;20032;-68
2023/09/02 01:28:33;;;;;;;4.30;1.67;;;14.30;99.90;;;;;;4071009;29;20386;-68
2023/09/02 01:30:36;;;;;;;3.90;2.40;;;14.30;99.90;;;;;;4082459;29;20039;-63
2023/09/02 01:32:42;;;;;;;3.65;2.20;;;14.30;99.90;;;;;;4081983;29;20071;-63
2023/09/02 01:34:45;;;;;;;4.80;2.72;;;14.30;99.90;;;;;;4082998;29;20090;-64
2023/09/02 01:36:50;;;;;;;4.63;2.40;;;14.30;99.90;;;;;;4081755;29;20016;-65
2023/09/02 01:38:52;;;;;;;3.53;2.30;;;14.30;99.90;;;;;;4082974;29;20500;-67
2023/09/02 01:40:56;;;;;;;4.72;2.22;;;14.30;99.90;;;;;;4081690;29;20024;-65
2023/09/02 01:42:59;;;;;;;4.55;2.80;;;14.20;99.90;;;;;;4082796;29;20024;-67
2023/09/02 01:45:01;;;;;;;3.83;2.65;;;14.30;99.90;;;;;;4081571;29;20036;-66
2023/09/02 01:47:02;;;;;;;5.55;2.45;;;14.30;99.90;;;;;;4082388;29;20059;-68
2023/09/02 01:49:04;;;;;;;7.15;2.75;;;14.20;99.90;;;;;;4081766;29;20433;-67
2023/09/02 01:51:06;;;;;;;5.72;2.35;;;14.20;99.90;;;;;;4082448;29;20409;-68
2023/09/02 01:53:08;;;;;;;4.47;2.33;;;14.20;99.90;;;;;;4081893;29;20559;-68
2023/09/02 01:55:10;;;;;;;5.30;2.22;;;14.20;99.90;;;;;;4082043;29;20036;-66
2023/09/02 01:57:12;;;;;;;6.28;2.50;;;14.10;99.90;;;;;;4081976;29;20024;-66
2023/09/02 01:59:13;;;;;;;3.78;2.45;;;14.10;99.90;;;;;;4081428;29;20044;-67
2023/09/02 02:01:14;;;;;;;3.33;2.20;;;14.10;99.90;;;;;;4082039;29;20047;-67
2023/09/02 02:03:27;;;;;;;5.80;2.97;;;14.10;99.90;;;;;;4081416;29;20036;-68
2023/09/02 02:05:35;;;;;;;5.90;2.63;;;14.10;99.90;;;;;;4082411;29;20051;-65
2023/09/02 02:07:41;;;;;;;5.05;2.38;;;14.00;99.90;;;;;;4081292;29;20083;-68
2023/09/02 02:09:53;;;;;;;3.58;2.00;;;13.90;99.90;;;;;;4081171;29;20028;-68
2023/09/02 02:11:56;;;;;;;6.70;2.33;;;14.00;99.90;;;;;;4079720;29;20039;-69
2023/09/02 02:14:01;;;;;;;5.07;2.22;;;13.90;99.90;;;;;;4082230;29;20036;-61
2023/09/02 02:16:03;;;;;;;3.03;2.03;;;13.90;99.90;;;;;;4081107;29;20035;-62
2023/09/02 02:18:04;;;;;;;4.03;2.30;;;13.80;99.90;;;;;;4082323;29;20024;-61
2023/09/02 02:20:07;;;;;;;4.00;2.10;;;13.80;99.90;;;;;;4081295;29;20751;-64
2023/09/02 02:22:08;;;;;;;2.30;1.80;;;13.90;99.90;;;;;;4081923;29;20047;-65
2023/09/02 02:24:09;;;;;;;5.93;2.45;;;13.80;99.90;;;;;;4081048;29;20039;-64
2023/09/02 02:26:10;;;;;;;4.03;2.25;;;13.80;99.90;;;;;;4080609;28;20110;-62
2023/09/02 02:28:12;;;;;;;4.03;2.10;;;13.80;99.90;;;;;;4080787;29;20036;-62
2023/09/02 02:30:13;;;;;;;3.95;2.70;;;13.80;99.90;;;;;;4082024;29;20044;-62
2023/09/02 02:32:14;;;;;;;3.13;2.30;;;13.80;99.90;;;;;;4080902;29;20082;-62
2023/09/02 02:34:15;;;;;;;4.35;2.80;;;13.70;99.90;;;;;;4081757;29;20040;-62
2023/09/02 02:36:16;;;;;;;4.78;3.35;;;13.70;99.90;;;;;;4081003;29;20103;-60
2023/09/02 02:38:17;;;;;;;6.65;2.60;;;13.70;99.90;;;;;;4081428;29;20040;-67
2023/09/02 02:40:18;;;;;;;3.80;3.22;;;13.60;99.90;;;;;;4081669;29;20118;-67
2023/09/02 02:42:22;;;;;;;2.90;2.47;;;13.60;99.90;;;;;;4080927;29;20031;-63
2023/09/02 02:44:23;;;;;;;3.22;2.03;;;13.60;99.90;;;;;;4081800;29;20047;-65
2023/09/02 02:46:25;;;;;;;3.43;2.60;;;13.40;99.90;;;;;;4080636;29;20051;-66
2023/09/02 02:48:28;;;;;;;7.10;2.55;;;13.30;99.90;;;;;;4082056;29;20027;-61
2023/09/02 02:50:29;;;;;;;2.33;1.97;;;13.20;99.90;;;;;;4080846;29;20083;-65
2023/09/02 02:52:30;;;;;;;4.90;2.50;;;13.10;99.90;;;;;;4081894;29;20039;-67
2023/09/02 02:54:31;;;;;;;3.23;2.30;;;13.10;99.90;;;;;;4080338;29;20047;-64
2023/09/02 02:56:32;;;;;;;3.30;2.50;;;13.00;99.90;;;;;;4081804;29;20502;-65
2023/09/02 02:58:33;;;;;;;6.10;3.23;;;13.00;99.90;;;;;;4080595;29;20472;-65
2023/09/02 03:00:35;;;;;;;3.30;2.20;;;13.00;99.90;;;;;;4081371;29;20043;-62
2023/09/02 03:02:36;;;;;;;3.70;2.57;;;13.00;99.90;;;;;;4080772;29;20032;-65
2023/09/02 03:04:37;;;;;;;5.77;2.57;;;13.00;99.90;;;;;;4081140;29;20134;-63
2023/09/02 03:06:38;;;;;;;6.07;2.67;;;13.00;99.90;;;;;;4080915;29;20024;-64
2023/09/02 03:08:39;;;;;;;5.13;2.30;;;13.00;99.90;;;;;;4080622;29;20044;-66
2023/09/02 03:10:40;;;;;;;2.40;2.17;;;12.90;99.90;;;;;;4081028;29;20098;-63
2023/09/02 03:12:42;;;;;;;2.87;2.50;;;12.90;99.90;;;;;;4080637;29;20028;-63
2023/09/02 03:14:43;;;;;;;5.27;2.60;;;13.00;99.90;;;;;;4080916;29;20107;-65
2023/09/02 03:16:44;;;;;;;5.07;3.03;;;12.90;99.90;;;;;;4079691;29;20040;-65
2023/09/02 03:18:45;;;;;;;6.00;2.67;;;12.90;99.90;;;;;;4081464;29;20439;-66
2023/09/02 03:20:46;;;;;;;3.40;2.73;;;12.90;99.90;;;;;;4080290;29;20181;-64
2023/09/02 03:22:47;;;;;;;4.43;2.97;;;12.90;99.90;;;;;;4081301;29;20039;-62
2023/09/02 03:24:54;;;;;;;6.40;2.63;;;12.90;99.90;;;;;;4079923;29;20107;-60
2023/09/02 03:26:55;;;;;;;6.87;3.30;;;13.00;99.90;;;;;;4081378;29;20096;-64
2023/09/02 03:28:57;;;;;;;5.00;3.80;;;13.00;99.90;;;;;;4080170;29;20468;-65
2023/09/02 03:31:07;;;;;;;5.40;3.30;;;12.90;99.90;;;;;;4081130;29;20095;-65
2023/09/02 03:33:09;;;;;;;6.15;3.30;;;12.90;99.90;;;;;;4080209;29;20054;-63
2023/09/02 03:35:10;;;;;;;6.30;2.90;;;13.00;99.90;;;;;;4081233;29;20039;-64
2023/09/02 03:37:11;;;;;;;9.93;3.10;;;12.90;99.90;;;;;;4079923;29;20031;-66
2023/09/02 03:39:12;;;;;;;6.10;2.90;;;13.00;99.90;;;;;;4080952;29;20575;-63
2023/09/02 03:41:17;;;;;;;6.13;2.93;;;13.00;99.90;;;;;;4078294;29;20075;-61
2023/09/02 03:43:18;;;;;;;5.07;3.07;;;13.00;99.90;;;;;;4080343;29;20031;-66
2023/09/02 03:45:19;;;;;;;4.90;3.50;;;13.00;99.90;;;;;;4079886;29;20438;-61
2023/09/02 03:47:20;;;;;;;7.13;3.70;;;13.00;99.90;;;;;;4079944;29;20555;-67
2023/09/02 03:49:22;;;;;;;6.23;3.23;;;13.00;99.90;;;;;;4080945;29;20043;-65
2023/09/02 03:51:23;;;;;;;4.77;3.03;;;12.90;99.90;;;;;;4079782;29;20087;-64
2023/09/02 03:53:24;;;;;;;5.33;3.07;;;12.90;99.90;;;;;;4080891;29;20095;-67
2023/09/02 03:55:25;;;;;;;6.33;3.40;;;12.90;99.90;;;;;;4079798;29;20028;-64
2023/09/02 03:57:26;;;;;;;10.57;3.60;;;12.90;99.90;;;;;;4080671;29;20485;-64
2023/09/02 03:59:27;;;;;;;6.03;3.30;;;12.90;99.90;;;;;;4079683;29;20080;-64
2023/09/02 04:01:28;;;;;;;8.47;3.57;;;12.90;99.90;;;;;;4080637;29;20024;-61
2023/09/02 04:03:37;;;;;;;4.50;3.47;;;13.00;99.90;;;;;;4079092;29;20039;-66
2023/09/02 04:05:38;;;;;;;6.63;4.90;;;13.20;99.90;;;;;;4080731;29;20532;-62
2023/09/02 04:07:39;;;;;;;7.80;3.70;;;13.50;99.90;;;;;;4079630;29;20036;-67
2023/09/02 04:09:40;;;;;;;8.27;3.03;;;13.80;99.90;;;;;;4080386;29;20374;-69
2023/09/02 04:11:41;;;;;;;8.90;3.40;;;14.20;99.90;;;;;;4078184;29;20035;-62
2023/09/02 04:13:43;;;;;;;6.40;3.27;;;14.50;99.90;;;;;;4079872;29;20044;-68
2023/09/02 04:15:44;;;;;;;2.93;2.60;;;14.80;99.90;;;;;;4079830;29;20090;-63
2023/09/02 04:17:45;;;;;;;7.40;2.72;;;15.00;99.90;;;;;;4079749;29;20028;-63
2023/09/02 04:19:46;;;;;;;5.72;2.70;;;15.30;99.90;;;;;;4080240;29;20436;-64
2023/09/02 04:21:47;;;;;;;6.38;2.58;;;15.50;99.90;;;;;;4078798;29;20099;-66
2023/09/02 04:23:48;;;;;;;6.18;2.80;;;15.70;99.90;;;;;;4080322;29;20100;-60
2023/09/02 04:25:52;;;;;;;4.30;3.10;;;15.90;99.90;;;;;;4079275;29;20047;-66
2023/09/02 04:27:53;;;;;;;4.80;2.95;;;16.20;99.90;;;;;;4080239;29;20095;-64
2023/09/02 04:29:54;;;;;;;3.80;2.53;;;16.50;99.90;;;;;;4079521;29;20035;-62
2023/09/02 04:31:55;;;;;;;8.77;3.92;;;17.00;99.90;;;;;;4080320;29;20036;-63
2023/09/02 04:33:57;;;;;;;4.22;2.47;;;17.40;99.90;;;;;;4079305;29;20031;-62
2023/09/02 04:36:00;;;;;;;6.15;5.55;;;17.60;99.90;;;;;;4080284;29;20083;-63
2023/09/02 04:38:01;;;;;;;13.82;8.63;;;17.80;99.90;;;;;;4078830;29;20040;-66
2023/09/02 04:40:05;;;;;;;11.02;9.10;;;18.00;99.90;;;;;;4080264;29;20405;-60
2023/09/02 04:42:06;;;;;;;20.20;8.95;;;18.10;99.90;;;;;;4079332;29;20496;-61
2023/09/02 04:44:07;;;;;;;16.65;14.85;;;18.10;99.90;;;;;;4080132;29;20444;-62
2023/09/02 04:46:09;;;;;;;13.05;10.40;;;18.20;99.90;;;;;;4078713;29;20118;-64
2023/09/02 04:48:11;;;;;;;13.23;11.82;;;18.30;99.90;;;;;;4079821;29;20028;-65
2023/09/02 04:50:12;;;;;;;8.20;6.88;;;18.60;99.90;;;;;;4082931;29;20083;-66
2023/09/02 04:52:13;;;;;;;9.45;6.03;;;18.80;99.90;;;;;;4081624;29;20377;-63
2023/09/02 04:54:14;;;;;;;8.63;7.20;;;19.00;99.90;;;;;;4083424;29;20130;-62
2023/09/02 04:56:16;;;;;;;6.85;4.78;;;19.20;99.90;;;;;;4081681;29;20108;-64
2023/09/02 04:58:20;;;;;;;6.28;3.63;;;19.40;99.90;;;;;;4083254;29;20437;-62
2023/09/02 05:00:28;;;;;;;6.97;4.72;;;19.20;99.90;;;;;;4082450;29;20023;-61
2023/09/02 05:02:29;;;;;;;8.38;3.63;;;19.00;99.90;;;;;;4083180;29;20382;-66
2023/09/02 05:04:30;;;;;;;7.35;3.53;;;19.20;99.90;;;;;;4082111;29;20036;-65
2023/09/02 05:06:31;;;;;;;6.90;3.72;;;19.20;99.90;;;;;;4081626;29;20032;-64
2023/09/02 05:08:34;;;;;;;7.55;4.55;;;19.40;99.90;;;;;;4081813;29;20205;-63
2023/09/02 05:10:35;;;;;;;5.60;4.43;;;19.70;99.90;;;;;;4082915;29;20044;-63
2023/09/02 05:12:36;;;;;;;8.13;3.33;;;20.10;99.90;;;;;;4081467;29;20028;-64
2023/09/02 05:14:39;;;;;;;6.35;3.75;;;20.50;99.90;;;;;;4082907;29;20079;-65
2023/09/02 05:16:40;;;;;;;6.43;4.20;;;21.10;99.90;;;;;;4081809;29;20460;-64
2023/09/02 05:18:41;;;;;;;7.05;3.88;;;21.10;99.90;;;;;;4082652;29;20031;-65
2023/09/02 05:20:42;;;;;;;8.38;4.78;;;21.10;99.90;;;;;;4082186;29;20481;-66
2023/09/02 05:22:43;;;;;;;9.38;4.80;;;21.00;99.90;;;;;;4082206;29;20476;-61
2023/09/02 05:24:45;;;;;;;7.75;4.63;;;21.10;99.90;;;;;;4082503;29;20027;-64
2023/09/02 05:26:46;;;;;;;10.60;4.78;;;21.10;99.90;;;;;;4081831;29;20035;-64
2023/09/02 05:28:47;;;;;;;8.18;4.38;;;21.50;99.90;;;;;;4082766;29;20052;-62
2023/09/02 05:30:48;;;;;;;7.40;4.30;;;22.20;99.90;;;;;;4081518;29;20095;-64
2023/09/02 05:32:49;;;;;;;6.97;4.07;;;23.10;99.90;;;;;;4082691;29;20036;-65
2023/09/02 05:34:50;;;;;;;8.02;4.63;;;23.70;99.90;;;;;;4081424;29;20106;-64
2023/09/02 05:36:51;;;;;;;6.30;4.15;;;23.80;99.90;;;;;;4082346;29;20036;-61
2023/09/02 05:38:52;;;;;;;6.88;4.13;;;23.60;99.90;;;;;;4081514;29;20047;-65
2023/09/02 05:40:54;;;;;;;10.90;3.72;;;23.80;99.90;;;;;;4082590;29;20099;-67
2023/09/02 05:42:55;;;;;;;6.65;4.10;;;24.20;99.90;;;;;;4081595;29;20079;-65
2023/09/02 05:44:56;;;;;;;9.38;3.97;;;24.70;99.90;;;;;;4082447;29;20138;-65
2023/09/02 05:46:57;;;;;;;6.32;3.47;;;24.80;99.90;;;;;;4081244;29;20099;-63
2023/09/02 05:48:58;;;;;;;9.13;4.43;;;24.60;99.90;;;;;;4082114;29;20140;-64
2023/09/02 05:50:59;;;;;;;11.70;4.57;;;24.50;99.60;;;;;;4081727;29;20028;-64
2023/09/02 05:53:00;;;;;;;19.48;5.00;;;24.20;99.60;;;;;;4081160;29;20095;-61
2023/09/02 05:55:01;;;;;;;9.65;4.55;;;23.60;99.90;;;;;;4082032;29;20039;-61
2023/09/02 05:57:03;;;;;;;13.27;4.80;;;24.10;99.90;;;;;;4081355;29;20090;-64
2023/09/02 05:59:05;;;;;;;6.88;4.68;;;24.80;99.20;;;;;;4082363;29;20032;-64
2023/09/02 06:01:06;;;;;;;10.55;4.88;;;25.10;98.40;;;;;;4081037;29;20043;-63
2023/09/02 06:03:07;;;;;;;5.63;4.35;;;25.00;98.10;;;;;;4082425;29;20104;-62
2023/09/02 06:05:08;;;;;;;5.57;4.07;;;25.00;97.80;;;;;;4081017;29;20122;-65
2023/09/02 06:07:09;;;;;;;11.05;4.45;;;25.00;97.90;;;;;;4081785;29;20159;-65
2023/09/02 06:09:11;;;;;;;9.60;5.28;;;24.50;97.90;;;;;;4080829;29;20031;-65
2023/09/02 06:11:12;;;;;;;7.50;5.15;;;24.10;98.30;;;;;;4082076;29;20484;-66
2023/09/02 06:13:13;;;;;;;9.85;6.70;;;23.80;98.80;;;;;;4081043;29;20095;-67
2023/09/02 06:15:15;;;;;;;14.35;5.93;;;23.70;99.00;;;;;;4082204;29;20091;-62
2023/09/02 06:17:16;;;;;;;11.80;5.43;;;23.60;99.10;;;;;;4080873;29;20496;-62
2023/09/02 06:19:17;;;;;;;7.25;4.95;;;24.00;98.90;;;;;;4081757;29;20036;-62
2023/09/02 06:21:18;;;;;;;12.43;5.65;;;23.90;98.60;;;;;;4081360;29;20099;-61
2023/09/02 06:23:19;;;;;;;8.05;4.93;;;23.60;99.10;;;;;;4081022;29;20099;-67
2023/09/02 06:25:20;;;;;;;8.80;4.55;;;23.90;99.00;;;;;;4081303;29;20032;-63
2023/09/02 06:27:21;;;;;;;10.65;4.93;;;24.40;98.50;;;;;;4080497;29;20036;-67
2023/09/02 06:29:22;;;;;;;7.78;4.85;;;24.50;98.10;;;;;;4081285;29;20131;-62
2023/09/02 06:31:24;;;;;;;7.55;4.25;;;24.20;98.10;;;;;;4080381;29;20425;-62
2023/09/02 06:33:25;;;;;;;8.43;4.78;;;23.70;98.70;;;;;;4081767;29;20411;-66
2023/09/02 06:35:30;;;;;;;11.20;4.75;;;23.70;98.60;;;;;;4080577;29;20563;-66
2023/09/02 06:37:31;;;;;;;9.43;3.72;;;23.30;98.80;;;;;;4081226;29;20373;-64
2023/09/02 06:39:32;;;;;;;6.40;3.38;;;23.30;99.20;;;;;;4080314;29;20039;-66
2023/09/02 06:41:33;;;;;;;6.78;3.60;;;23.80;98.90;;;;;;4081566;29;20043;-66
2023/09/02 06:43:34;;;;;;;8.00;4.28;;;24.30;98.30;;;;;;4080248;29;20035;-67
2023/09/02 06:45:36;;;;;;;7.35;3.10;;;24.50;98.10;;;;;;4081038;29;20040;-64
2023/09/02 06:47:37;;;;;;;4.28;3.45;;;24.90;97.70;;;;;;4080350;29;20059;-67
2023/09/02 06:49:38;;;;;;;12.27;4.30;;;24.90;97.50;;;;;;4081286;29;20087;-65
2023/09/02 06:51:39;;;;;;;6.68;3.25;;;24.80;97.60;;;;;;4080590;29;20039;-67
2023/09/02 06:53:41;;;;;;;2.50;2.30;;;24.50;97.60;;;;;;4080816;29;20459;-67
2023/09/02 06:55:42;;;;;;;4.65;2.40;;;24.30;97.30;;;;;;4080737;29;20032;-66
2023/09/02 06:57:44;;;;;;;4.20;2.50;;;24.20;97.10;;;;;;4079834;29;20040;-66
2023/09/02 06:59:45;;;;;;;2.83;2.35;;;24.20;97.00;;;;;;4081104;29;20108;-66
2023/09/02 07:01:46;;;;;;;13.40;3.65;;;24.60;97.00;;;;;;4080025;29;20099;-65
2023/09/02 07:03:48;;;;;;;6.07;2.50;;;24.60;96.60;;;;;;4080809;29;20114;-67
2023/09/02 07:05:49;;;;;;;4.68;3.17;;;24.40;96.80;;;;;;4079909;29;20561;-67
2023/09/02 07:07:50;;;;;;;6.50;3.22;;;23.80;97.40;;;;;;4081168;29;20043;-67
2023/09/02 07:09:52;;;;;;;4.07;2.63;;;23.50;97.80;;;;;;4079739;29;20040;-64
2023/09/02 07:11:53;;;;;;;3.85;2.40;;;23.90;97.70;;;;;;4080403;29;20044;-62
2023/09/02 07:13:54;;;;;;;6.22;2.85;;;23.60;97.60;;;;;;4077382;29;20110;-63
2023/09/02 07:15:59;;;;;;;4.60;2.40;;;23.30;97.60;;;;;;4080893;29;20035;-65
2023/09/02 07:18:01;;;;;;;6.25;3.55;;;23.20;97.70;;;;;;4079632;29;20091;-64
2023/09/02 07:20:02;;;;;;;7.63;3.00;;;22.90;98.10;;;;;;4080302;29;20489;-62
2023/09/02 07:22:04;;;;;;;6.40;3.45;;;23.10;98.30;;;;;;4079783;29;20158;-64
2023/09/02 07:24:05;;;;;;;13.23;2.97;;;23.00;98.40;;;;;;4080432;29;20091;-63
2023/09/02 07:26:06;;;;;;;10.15;3.05;;;22.70;98.60;;;;;;4080128;29;20102;-62
2023/09/02 07:28:07;;;;;;;16.02;3.28;;;22.60;98.80;;;;;;4079852;29;20027;-68
2023/09/02 07:30:08;;;;;;;9.77;2.65;;;23.10;98.60;;;;;;4080282;29;20043;-62
2023/09/02 07:32:10;;;;;;;7.60;2.88;;;23.00;98.50;;;;;;4078975;29;20051;-62
2023/09/02 07:34:11;;;;;;;7.88;2.55;;;22.90;98.50;;;;;;4080650;29;20024;-64
2023/09/02 07:36:13;;;;;;;9.38;2.38;;;22.90;98.40;;;;;;4078959;29;20099;-64
2023/09/02 07:38:14;;;;;;;6.38;2.35;;;23.10;98.40;;;;;;4080374;29;20059;-63
2023/09/02 07:40:15;;;;;;;4.20;2.63;;;23.00;98.40;;;;;;4079178;29;20091;-63
2023/09/02 07:42:16;;;;;;;6.18;2.38;;;22.90;98.60;;;;;;4080683;29;20062;-68
2023/09/02 07:44:17;;;;;;;4.22;2.35;;;23.00;98.60;;;;;;4079385;29;20039;-64
2023/09/02 07:46:18;;;;;;;7.85;2.75;;;23.10;98.60;;;;;;4079884;29;20103;-64
2023/09/02 07:48:19;;;;;;;8.65;3.20;;;23.00;98.60;;;;;;4079451;29;20039;-64
2023/09/02 07:50:21;;;;;;;3.92;2.40;;;22.90;98.80;;;;;;4079765;29;20079;-65
2023/09/02 07:52:24;;;;;;;5.90;2.67;;;22.70;99.00;;;;;;4079362;29;20079;-62
2023/09/02 07:54:25;;;;;;;5.38;3.95;;;22.70;99.30;;;;;;4080127;29;20488;-67
2023/09/02 07:56:26;;;;;;;9.80;3.65;;;22.60;99.30;;;;;;4079862;29;20032;-65
2023/09/02 07:58:27;;;;;;;6.93;3.97;;;22.80;99.30;;;;;;4079688;29;20031;-64
2023/09/02 08:00:28;;;;;;;4.93;2.60;;;22.70;99.40;;;;;;4079895;29;20095;-65
2023/09/02 08:02:29;;;;;;;9.43;2.38;;;22.90;99.50;;;;;;4079169;29;20039;-65
2023/09/02 08:04:31;;;;;;;5.30;2.33;;;23.00;99.40;;;;;;4080251;29;20559;-63
2023/09/02 08:06:32;;;;;;;4.90;2.67;;;23.00;99.40;;;;;;4079252;29;20127;-64
2023/09/02 08:08:33;;;;;;;4.63;2.65;;;23.30;99.40;;;;;;4080517;29;20043;-68
2023/09/02 08:10:35;;;;;;;3.28;2.47;;;23.20;99.50;;;;;;4079301;29;20083;-68
2023/09/02 08:12:36;;;;;;;3.15;2.53;;;23.20;99.50;;;;;;4079514;29;20035;-67
2023/09/02 08:14:37;;;;;;;3.85;2.53;;;23.20;99.60;;;;;;4079338;29;20539;-67
2023/09/02 08:16:38;;;;;;;6.38;2.38;;;23.00;99.90;;;;;;4080043;29;20091;-64
2023/09/02 08:18:39;;;;;;;5.32;2.42;;;23.10;99.90;;;;;;4079296;29;20073;-69
2023/09/02 08:20:40;;;;;;;4.88;2.35;;;23.20;99.90;;;;;;4080044;29;20036;-69
2023/09/02 08:22:43;;;;;;;4.43;3.05;;;23.30;99.90;;;;;;4078759;29;20086;-65
2023/09/02 08:24:44;;;;;;;4.40;2.70;;;23.10;99.90;;;;;;4077500;29;20524;-69
2023/09/02 08:26:45;;;;;;;3.92;2.55;;;23.30;99.90;;;;;;4079757;29;20044;-65
2023/09/02 08:28:46;;;;;;;7.78;3.17;;;23.60;99.90;;;;;;4079010;29;20398;-67
2023/09/02 08:30:47;;;;;;;6.22;3.75;;;23.90;99.90;;;;;;4079795;29;20130;-66
2023/09/02 08:32:48;;;;;;;3.70;2.53;;;23.80;99.90;;;;;;4079132;29;20481;-63
2023/09/02 08:34:49;;;;;;;2.75;2.17;;;23.70;99.90;;;;;;4080250;29;20039;-68
2023/09/02 08:36:50;;;;;;;4.13;2.92;;;23.80;99.90;;;;;;4079050;29;20389;-64
2023/09/02 08:38:52;;;;;;;3.63;2.50;;;24.10;99.90;;;;;;4080197;29;20040;-63
2023/09/02 08:40:54;;;;;;;6.78;2.65;;;24.40;99.80;;;;;;4077232;29;20040;-68
2023/09/02 08:42:55;;;;;;;3.25;2.28;;;24.80;99.50;;;;;;4079908;29;20444;-66
2023/09/02 08:44:57;;;;;;;5.07;2.30;;;25.00;99.10;;;;;;4079147;29;20032;-67
2023/09/02 08:47:01;;;;;;;4.97;2.83;;;25.20;99.20;;;;;;4079732;29;20338;-65
2023/09/02 08:49:02;;;;;;;3.45;2.42;;;25.40;98.60;;;;;;4078892;29;20040;-62
2023/09/02 08:51:04;;;;;;;2.67;1.98;;;25.10;98.60;;;;;;4080148;29;20036;-62
2023/09/02 08:53:05;;;;;;;3.53;2.33;;;25.00;98.70;;;;;;4078615;29;20063;-67
2023/09/02 08:55:08;;;;;;;2.53;1.90;;;25.20;98.80;;;;;;4079906;29;20044;-65
2023/09/02 08:57:12;;;;;;;5.85;2.40;;;25.40;98.60;;;;;;4079125;29;20091;-69
2023/09/02 08:59:13;;;;;;;5.18;2.65;;;25.30;98.40;;;;;;4079581;29;20027;-62
2023/09/02 09:01:19;;;;;;;2.63;1.95;;;25.20;98.80;;;;;;4079377;29;20079;-67
2023/09/02 09:03:21;;;;;;;3.00;1.92;;;25.00;98.30;;;;;;4078993;29;20024;-68
2023/09/02 09:05:23;;;;;;;2.00;1.70;;;24.80;98.40;;;;;;4079645;29;20048;-67
2023/09/02 09:07:27;;;;;;;3.55;2.08;;;24.90;98.50;;;;;;4078725;29;20107;-70
2023/09/02 09:09:30;;;;;;;3.20;1.90;;;25.10;98.10;;;;;;4079712;29;20473;-70
2023/09/02 09:11:34;;;;;;;2.65;1.80;;;25.20;98.00;;;;;;4078764;29;20032;-64
2023/09/02 09:13:43;;;;;;;1.77;1.55;;;25.20;97.70;;;;;;4079808;29;20477;-66
2023/09/02 09:15:46;;;;;;;3.00;1.70;;;25.10;97.60;;;;;;4078498;29;20039;-64
2023/09/02 09:17:48;;;;;;;5.40;1.60;;;25.10;97.50;;;;;;4079949;29;20024;-61
2023/09/02 09:19:51;;;;;;;3.33;1.55;;;25.00;97.60;;;;;;4078900;29;20417;-65
2023/09/02 09:21:52;;;;;;;2.65;1.88;;;25.00;97.50;;;;;;4079704;29;20040;-62
2023/09/02 09:23:53;;;;;;;1.73;1.58;;;25.20;97.30;;;;;;4078957;29;20039;-65
2023/09/02 09:25:55;;;;;;;3.47;1.30;;;25.20;96.80;;;;;;4079480;29;20055;-66
2023/09/02 09:28:10;;;;;;;1.65;1.30;;;25.30;96.50;;;;;;4078787;29;20137;-69
2023/09/02 09:30:28;;;;;;;2.03;1.50;;;25.30;95.40;;;;;;4079919;29;20036;-64
2023/09/02 09:32:29;;;;;;;2.50;1.80;;;25.50;95.30;;;;;;4078510;29;20044;-64
2023/09/02 09:34:44;;;;;;;2.53;1.35;;;25.60;95.60;;;;;;4080289;29;20441;-62
2023/09/02 09:36:57;;;;;;;2.22;1.30;;;25.60;94.70;;;;;;4081531;29;20036;-68
2023/09/02 09:39:03;;;;;;;1.40;1.20;;;25.60;95.00;;;;;;4082616;29;20103;-68
2023/09/02 09:41:08;;;;;;;3.58;1.05;;;25.80;95.20;;;;;;4081566;29;20031;-69
2023/09/02 09:43:16;;;;;;;3.03;1.10;;;25.80;94.60;;;;;;4082815;29;20555;-65
2023/09/02 09:45:17;;;;;;;1.63;1.30;;;25.90;93.60;;;;;;4080991;29;20052;-67
2023/09/02 09:47:18;;;;;;;2.63;1.17;;;25.90;93.30;;;;;;4082159;29;20122;-67
2023/09/02 09:49:31;;;;;;;1.48;1.00;;;25.90;92.40;;;;;;4080003;29;20087;-69
2023/09/02 09:51:33;;;;;;;2.38;1.00;;;25.90;91.70;;;;;;4082006;29;20437;-66
2023/09/02 09:53:45;;;;;;;3.42;1.42;;;26.10;91.70;;;;;;4081723;29;20074;-67
2023/09/02 09:55:47;;;;;;;6.30;1.65;;;26.00;91.50;;;;;;4082053;29;20095;-64
2023/09/02 09:57:53;;;;;;;1.38;1.27;;;25.90;91.90;;;;;;4081471;29;20496;-70
2023/09/02 09:59:54;;;;;;;1.52;0.98;;;26.00;91.00;;;;;;4081848;29;20393;-65
2023/09/02 10:01:57;;;;;;;1.75;0.88;;;25.90;90.90;;;;;;4081567;29;20481;-64
2023/09/02 10:03:58;;;;;;;1.50;1.05;;;25.80;90.70;;;;;;4081063;29;20444;-67
2023/09/02 10:06:00;;;;;;;2.85;1.42;;;25.70;90.80;;;;;;4081707;29;20051;-69
2023/09/02 10:08:07;;;;;;;6.20;1.75;;;25.80;90.90;;;;;;4080507;29;20396;-68
2023/09/02 10:10:09;;;;;;;0.80;0.70;;;25.90;90.90;;;;;;4082068;29;20036;-69
2023/09/02 10:12:11;;;;;;;1.85;1.00;;;26.00;90.80;;;;;;4081264;29;20032;-63
2023/09/02 10:14:13;;;;;;;1.88;0.90;;;25.90;90.40;;;;;;4082095;29;20065;-67
2023/09/02 10:16:16;;;;;;;3.10;1.13;;;25.90;90.30;;;;;;4080998;29;20032;-65
2023/09/02 10:18:18;;;;;;;1.65;1.30;;;25.90;90.10;;;;;;4082228;29;20547;-66
2023/09/02 10:20:21;;;;;;;3.50;1.17;;;25.90;90.10;;;;;;4080837;29;20485;-67
2023/09/02 10:22:25;;;;;;;1.77;1.10;;;25.80;90.00;;;;;;4081745;29;20111;-63
2023/09/02 10:24:38;;;;;;;0.77;0.75;;;25.70;90.00;;;;;;4079533;29;20122;-67
2023/09/02 10:26:51;;;;;;;0.75;0.75;;;25.80;90.00;;;;;;4082061;29;20054;-67
2023/09/02 10:28:57;;;;;;;2.22;0.82;;;25.90;89.50;;;;;;4081036;29;20435;-68
2023/09/02 10:31:02;;;;;;;0.93;0.82;;;25.90;89.70;;;;;;4081608;29;21068;-64
2023/09/02 10:33:38;;;;;;;2.25;1.02;;;26.00;89.90;;;;;;4080988;29;20079;-67
2023/09/02 10:35:43;;;;;;;1.60;1.15;;;26.00;89.20;;;;;;4081505;29;20238;-67